Time;durP1;ratioP1;P1;durP2;ratioP2;P2;SDS_P1;SDS_P2;PMS_P1;PMS_P2;Temp;Humidity;BMP_temperature;BMP_pressure;BME280_temperature;BME280_humidity;BME280_pressure;Samples;Min_cycle;Max_cycle;Signal;HPM_P1;HPM_P2
2022/05/01 00:01:27;;;;;;;11.82;7.32;;;;;;;10.10;61.33;101566.38;7397070;19;20026;-66
2022/05/01 00:03:55;;;;;;;10.00;7.03;;;;;;;10.04;61.44;101576.03;7399415;19;20025;-66
2022/05/01 00:06:26;;;;;;;11.38;8.27;;;;;;;10.00;61.78;101579.59;7399035;19;20388;-65
2022/05/01 00:08:54;;;;;;;11.00;7.15;;;;;;;9.93;61.95;101576.09;7400802;19;20026;-65
2022/05/01 00:11:23;;;;;;;9.50;7.20;;;;;;;9.86;62.12;101572.66;7396466;19;20477;-65
2022/05/01 00:13:51;;;;;;;11.50;7.55;;;;;;;9.83;62.29;101577.94;7398768;19;20018;-65
2022/05/01 00:16:19;;;;;;;8.73;7.38;;;;;;;9.78;62.51;101577.03;7396911;19;20026;-65
2022/05/01 00:18:47;;;;;;;13.10;7.55;;;;;;;9.74;62.68;101576.22;7399029;19;20019;-66
2022/05/01 00:21:15;;;;;;;10.57;6.88;;;;;;;9.71;62.90;101572.75;7396746;19;20015;-66
2022/05/01 00:23:46;;;;;;;12.35;7.30;;;;;;;9.68;63.00;101572.72;7398976;19;20024;-66
2022/05/01 00:26:15;;;;;;;9.02;7.72;;;;;;;9.61;63.15;101572.75;7399366;19;20018;-65
2022/05/01 00:28:43;;;;;;;12.88;7.72;;;;;;;9.59;63.69;101581.50;7398862;19;20018;-66
2022/05/01 00:31:11;;;;;;;10.13;6.60;;;;;;;9.53;63.86;101579.78;7397033;19;20419;-65
2022/05/01 00:36:30;;;;;;;14.45;7.45;;;;;;;9.41;64.48;101579.84;7398884;19;20018;-66
2022/05/01 00:39:08;;;;;;;13.25;7.75;;;;;;;9.34;65.09;101573.75;7398884;19;20019;-66
2022/05/01 00:41:39;;;;;;;10.02;7.70;;;;;;;9.30;64.85;101582.47;7396638;19;20147;-65
2022/05/01 00:44:09;;;;;;;13.02;7.68;;;;;;;9.29;64.97;101580.75;7398781;19;20018;-65
2022/05/01 00:46:39;;;;;;;10.95;7.40;;;;;;;9.25;65.35;101585.13;7396183;19;20042;-66
2022/05/01 00:49:10;;;;;;;13.18;7.38;;;;;;;9.24;65.40;101579.91;7396037;19;20018;-66
2022/05/01 00:51:43;;;;;;;8.75;7.13;;;;;;;9.20;65.74;101578.16;7396033;19;20046;-66
2022/05/01 00:54:15;;;;;;;11.48;7.25;;;;;;;9.17;65.68;101578.16;7394575;19;20011;-66
2022/05/01 00:56:46;;;;;;;17.52;8.30;;;;;;;9.13;65.94;101579.91;7398326;19;20027;-66
2022/05/01 00:59:14;;;;;;;11.60;7.32;;;;;;;9.12;66.23;101575.56;7396056;19;20022;-66
2022/05/01 01:01:44;;;;;;;12.95;8.07;;;;;;;9.08;66.33;101576.44;7396709;19;20035;-66
2022/05/01 01:04:13;;;;;;;10.88;7.93;;;;;;;9.04;66.36;101572.97;7395760;19;20011;-66
2022/05/01 01:06:41;;;;;;;11.63;8.30;;;;;;;9.01;66.53;101570.34;7397668;19;20019;-66
2022/05/01 01:09:10;;;;;;;10.57;6.97;;;;;;;8.98;66.68;101572.97;7397517;19;20023;-66
2022/05/01 01:11:42;;;;;;;12.63;7.82;;;;;;;8.95;67.35;101572.97;7395620;19;20022;-66
2022/05/01 01:14:11;;;;;;;9.15;7.55;;;;;;;8.92;66.91;101576.47;7398788;19;20025;-66
2022/05/01 01:16:44;;;;;;;11.35;7.88;;;;;;;8.89;67.14;101571.22;7395364;19;20014;-66
2022/05/01 01:19:12;;;;;;;10.45;7.63;;;;;;;8.85;66.85;101574.75;7396752;19;20528;-66
2022/05/01 01:21:43;;;;;;;10.82;7.97;;;;;;;8.83;67.11;101567.75;7395416;19;20022;-67
2022/05/01 01:24:12;;;;;;;12.23;8.10;;;;;;;8.81;66.95;101573.00;7395650;19;20027;-66
2022/05/01 01:26:41;;;;;;;12.18;8.98;;;;;;;8.80;66.97;101566.03;7396944;19;20018;-67
2022/05/01 01:31:53;;;;;;;10.95;8.02;;;;;;;8.82;66.97;101574.75;7394172;19;20495;-67
2022/05/01 01:34:24;;;;;;;10.35;8.45;;;;;;;8.82;66.91;101572.13;7396636;19;20029;-66
2022/05/01 01:36:56;;;;;;;10.25;6.72;;;;;;;8.83;67.25;101580.84;7397088;19;20014;-66
2022/05/01 01:39:26;;;;;;;9.40;6.93;;;;;;;8.84;67.00;101577.38;7396959;19;20027;-65
2022/05/01 01:41:57;;;;;;;10.10;7.47;;;;;;;8.84;67.03;101578.22;7396926;19;20015;-65
2022/05/01 01:44:29;;;;;;;12.65;8.30;;;;;;;8.83;67.05;101579.09;7394753;19;20022;-66
2022/05/01 01:46:57;;;;;;;10.20;8.02;;;;;;;8.83;67.43;101576.47;7396695;19;20013;-66
2022/05/01 01:49:25;;;;;;;13.00;7.88;;;;;;;8.80;67.34;101577.34;7394578;19;20022;-66
2022/05/01 01:51:56;;;;;;;16.50;8.68;;;;;;;8.81;67.57;101578.25;7394373;19;20023;-66
2022/05/01 01:54:24;;;;;;;11.05;8.32;;;;;;;8.81;67.67;101583.47;7393796;19;20018;-66
2022/05/01 01:56:53;;;;;;;11.88;8.20;;;;;;;8.80;67.49;101584.34;7394347;19;20015;-66
2022/05/01 01:59:22;;;;;;;10.35;8.10;;;;;;;8.79;67.67;101580.84;7395538;19;20015;-65
2022/05/01 02:01:50;;;;;;;9.95;7.50;;;;;;;8.78;67.58;101583.47;7393868;19;20030;-66
2022/05/01 02:04:19;;;;;;;9.95;7.78;;;;;;;8.77;67.59;101577.38;7395302;19;20481;-66
2022/05/01 02:06:47;;;;;;;12.20;7.18;;;;;;;8.76;67.70;101590.47;7395642;19;20015;-66
2022/05/01 02:09:18;;;;;;;13.82;8.15;;;;;;;8.75;67.75;101588.72;7395599;19;20015;-66
2022/05/01 02:11:46;;;;;;;10.35;8.00;;;;;;;8.74;67.93;101584.34;7393966;19;20365;-66
2022/05/01 02:14:14;;;;;;;11.27;7.82;;;;;;;8.72;68.06;101583.47;7393754;19;20026;-66
2022/05/01 02:16:44;;;;;;;11.73;7.75;;;;;;;8.69;68.07;101594.78;7393710;19;20036;-67
2022/05/01 02:19:12;;;;;;;11.23;7.78;;;;;;;8.67;68.33;101591.34;7393662;19;20042;-66
2022/05/01 02:21:40;;;;;;;11.20;7.63;;;;;;;8.63;68.28;101590.44;7393482;19;20023;-66
2022/05/01 02:24:10;;;;;;;12.88;8.05;;;;;;;8.59;68.26;101586.09;7395143;19;20058;-66
2022/05/01 02:26:41;;;;;;;10.85;8.00;;;;;;;8.59;68.31;101587.81;7395121;19;20031;-66
2022/05/01 02:29:12;;;;;;;9.73;7.32;;;;;;;8.57;68.32;101582.59;7395522;19;20014;-66
2022/05/01 02:31:41;;;;;;;11.55;7.50;;;;;;;8.57;68.14;101581.75;7393372;19;20025;-66
2022/05/01 02:34:10;;;;;;;12.57;8.23;;;;;;;8.55;68.32;101581.72;7393198;19;20026;-67
2022/05/01 02:36:38;;;;;;;13.73;7.15;;;;;;;8.55;68.56;101580.88;7393012;19;20035;-66
2022/05/01 02:39:06;;;;;;;12.88;7.38;;;;;;;8.53;68.04;101578.25;7392710;19;20022;-65
2022/05/01 02:41:34;;;;;;;12.98;7.75;;;;;;;8.48;68.34;101580.00;7392443;19;20026;-66
2022/05/01 02:44:07;;;;;;;8.18;6.78;;;;;;;8.42;68.68;101572.13;7392725;19;20481;-66
2022/05/01 02:46:35;;;;;;;11.35;7.03;;;;;;;8.40;68.68;101576.47;7393247;19;20025;-66
2022/05/01 02:49:04;;;;;;;13.23;7.07;;;;;;;8.37;68.56;101566.00;7392373;19;20006;-66
2022/05/01 02:51:33;;;;;;;11.65;7.53;;;;;;;8.35;68.67;101563.38;7392520;19;20070;-66
2022/05/01 02:54:04;;;;;;;10.32;8.15;;;;;;;8.35;68.63;101567.75;7392951;19;20019;-66
2022/05/01 02:56:32;;;;;;;12.60;7.13;;;;;;;8.32;68.44;101566.00;7393005;19;20017;-66
2022/05/01 02:59:00;;;;;;;11.27;7.63;;;;;;;8.31;68.39;101564.25;7394267;19;20046;-66
2022/05/01 03:01:31;;;;;;;12.93;7.25;;;;;;;8.29;68.59;101563.38;7392149;19;20451;-66
2022/05/01 03:03:59;;;;;;;16.48;7.95;;;;;;;8.28;68.50;101566.88;7394484;19;20022;-66
2022/05/01 03:06:28;;;;;;;9.23;7.32;;;;;;;8.25;68.52;101567.75;7391949;19;20019;-66
2022/05/01 03:08:56;;;;;;;11.50;8.30;;;;;;;8.20;68.93;101566.88;7392055;19;20025;-66
2022/05/01 03:11:25;;;;;;;8.88;7.38;;;;;;;8.17;68.97;101563.38;7391860;19;20042;-66
2022/05/01 03:13:53;;;;;;;12.68;7.75;;;;;;;8.12;68.80;101559.00;7393934;19;20021;-66
2022/05/01 03:16:22;;;;;;;12.63;7.32;;;;;;;8.09;69.17;101563.38;7392177;19;20019;-66
2022/05/01 03:24:15;;;;;;;13.73;7.47;;;;;;;7.94;69.28;101575.50;7401261;19;20011;-66
2022/05/01 03:26:43;;;;;;;10.50;6.47;;;;;;;7.89;69.35;101568.53;7400843;19;20031;-66
2022/05/01 03:29:11;;;;;;;11.98;7.13;;;;;;;7.84;69.31;101571.13;7398723;19;20019;-67
2022/05/01 03:31:40;;;;;;;10.75;6.55;;;;;;;7.83;69.55;101572.00;7397985;19;20064;-66
2022/05/01 03:34:17;;;;;;;11.27;6.90;;;;;;;7.80;69.73;101578.09;7400400;19;20015;-67
2022/05/01 03:36:45;;;;;;;12.85;7.10;;;;;;;7.77;69.68;101579.81;7398111;19;20019;-69
2022/05/01 03:39:14;;;;;;;8.48;6.85;;;;;;;7.73;70.03;101583.28;7400825;19;20035;-67
2022/05/01 03:41:42;;;;;;;14.80;7.15;;;;;;;7.69;69.83;101589.38;7397559;19;20376;-67
2022/05/01 03:44:10;;;;;;;11.63;6.63;;;;;;;7.66;70.13;101582.41;7399868;19;20014;-67
2022/05/01 03:46:39;;;;;;;12.10;6.20;;;;;;;7.63;70.07;101591.09;7400299;19;20039;-68
2022/05/01 03:49:07;;;;;;;9.50;6.72;;;;;;;7.60;70.22;101580.63;7400187;19;20022;-68
2022/05/01 03:51:38;;;;;;;9.05;6.68;;;;;;;7.61;70.07;101578.91;7397634;19;20022;-67
2022/05/01 03:54:06;;;;;;;10.27;7.00;;;;;;;7.60;70.21;101591.06;7396899;19;20478;-68
2022/05/01 03:56:35;;;;;;;9.25;6.45;;;;;;;7.61;69.88;101587.59;7398076;19;20018;-68
2022/05/01 03:59:04;;;;;;;13.80;7.80;;;;;;;7.59;70.07;101589.31;7400211;19;20019;-68
2022/05/01 04:01:33;;;;;;;13.93;6.50;;;;;;;7.59;69.99;101594.53;7397971;19;20014;-68
2022/05/01 04:04:02;;;;;;;10.75;6.13;;;;;;;7.58;70.44;101589.31;7399753;19;20018;-67
2022/05/01 04:06:30;;;;;;;8.02;6.38;;;;;;;7.55;70.11;101584.97;7399639;19;20018;-68
2022/05/01 04:09:00;;;;;;;9.18;6.45;;;;;;;7.55;70.06;101587.56;7397058;19;20031;-67
2022/05/01 04:11:29;;;;;;;7.85;5.72;;;;;;;7.57;70.06;101590.19;7397617;19;20046;-67
2022/05/01 04:13:57;;;;;;;11.02;6.57;;;;;;;7.58;69.84;101589.31;7399356;19;20035;-67
2022/05/01 04:16:25;;;;;;;10.02;6.47;;;;;;;7.62;69.62;101589.34;7398124;19;20035;-67
2022/05/01 04:18:53;;;;;;;12.80;6.93;;;;;;;7.64;69.63;101590.22;7399209;19;20018;-68
2022/05/01 04:21:21;;;;;;;11.57;6.80;;;;;;;7.68;69.79;101603.31;7397481;19;20039;-68
2022/05/01 04:23:49;;;;;;;7.65;6.85;;;;;;;7.69;69.72;101597.22;7398973;19;20021;-68
2022/05/01 04:26:20;;;;;;;8.73;6.72;;;;;;;7.71;69.54;101603.28;7398932;19;20036;-68
2022/05/01 04:31:30;;;;;;;13.10;6.25;;;;;;;7.73;69.73;101596.34;7395469;19;20018;-68
2022/05/01 04:33:58;;;;;;;9.90;6.82;;;;;;;7.73;69.78;101601.56;7398230;19;20474;-68
2022/05/01 04:36:26;;;;;;;8.95;6.57;;;;;;;7.73;69.75;101602.44;7397108;19;20023;-68
2022/05/01 04:38:54;;;;;;;9.25;6.63;;;;;;;7.75;69.65;101602.47;7398828;19;20022;-69
2022/05/01 04:41:25;;;;;;;11.60;6.90;;;;;;;7.79;69.84;101601.59;7396780;19;20112;-69
2022/05/01 04:43:53;;;;;;;9.40;6.13;;;;;;;7.80;69.49;101611.19;7398508;19;20021;-68
2022/05/01 04:46:21;;;;;;;11.43;6.15;;;;;;;7.84;69.59;101612.94;7398262;19;20019;-68
2022/05/01 04:48:50;;;;;;;10.80;6.38;;;;;;;7.87;69.45;101614.69;7397724;19;20431;-68
2022/05/01 04:51:18;;;;;;;9.65;6.18;;;;;;;7.89;69.38;101610.34;7395733;19;20042;-68
2022/05/01 04:53:46;;;;;;;9.52;5.90;;;;;;;7.93;69.44;101614.72;7397141;19;20028;-68
2022/05/01 04:59:07;;;;;;;9.88;6.35;;;;;;;8.00;69.26;101613.88;7398468;19;20363;-70
2022/05/01 05:01:35;;;;;;;9.50;5.88;;;;;;;8.04;69.05;101614.72;7395762;19;20090;-69
2022/05/01 05:04:04;;;;;;;9.18;6.68;;;;;;;8.08;69.13;101616.50;7397686;19;20032;-68
2022/05/01 05:06:32;;;;;;;11.45;6.32;;;;;;;8.12;69.18;101608.66;7397540;19;20100;-68
2022/05/01 05:11:41;;;;;;;11.00;6.32;;;;;;;8.20;68.96;101613.03;7395703;19;20040;-68
2022/05/01 05:14:12;;;;;;;9.82;6.35;;;;;;;8.24;68.80;101615.66;7396936;19;20386;-68
2022/05/01 05:17:06;;;;;;;8.18;6.00;;;;;;;8.28;68.61;101617.41;7395630;19;20014;-68
2022/05/01 05:19:34;;;;;;;10.68;5.80;;;;;;;8.32;68.61;101621.75;7397496;19;20074;-69
2022/05/01 05:22:02;;;;;;;9.20;5.80;;;;;;;8.35;68.49;101613.06;7397138;19;20006;-68
2022/05/01 05:24:31;;;;;;;7.80;5.85;;;;;;;8.38;68.51;101617.41;7396538;19;20014;-69
2022/05/01 05:27:00;;;;;;;8.30;5.70;;;;;;;8.41;68.41;101615.69;7395002;19;20035;-68
2022/05/01 05:29:31;;;;;;;12.68;5.93;;;;;;;8.45;68.35;101620.06;7394980;19;20027;-68
2022/05/01 05:31:59;;;;;;;9.80;5.85;;;;;;;8.50;68.24;101616.59;7396559;19;20379;-69
2022/05/01 05:34:27;;;;;;;7.57;5.50;;;;;;;8.55;67.95;101620.94;7394642;19;20018;-68
2022/05/01 05:36:56;;;;;;;9.38;5.70;;;;;;;8.60;67.79;101621.81;7394628;19;20517;-68
2022/05/01 05:39:24;;;;;;;7.65;5.47;;;;;;;8.66;67.70;101626.19;7393669;19;20022;-68
2022/05/01 05:41:52;;;;;;;8.65;5.43;;;;;;;8.73;67.48;101627.97;7393825;19;20481;-69
2022/05/01 05:44:20;;;;;;;9.75;5.32;;;;;;;8.79;67.32;101633.16;7396241;19;20019;-68
2022/05/01 05:46:51;;;;;;;9.10;5.53;;;;;;;8.85;66.82;101632.31;7396156;19;20022;-67
2022/05/01 05:49:19;;;;;;;9.55;5.47;;;;;;;8.90;66.68;101627.94;7396477;19;20023;-68
2022/05/01 05:51:48;;;;;;;6.28;4.93;;;;;;;8.97;66.33;101623.56;7393996;19;20023;-68
2022/05/01 05:54:29;;;;;;;8.32;5.70;;;;;;;9.04;65.90;101629.69;7394604;19;20027;-68
2022/05/01 05:56:57;;;;;;;7.18;5.25;;;;;;;9.10;65.83;101630.53;7395250;19;20028;-69
2022/05/01 05:59:25;;;;;;;8.73;5.38;;;;;;;9.17;65.55;101625.28;7395551;19;20014;-69
2022/05/01 06:01:56;;;;;;;7.60;5.45;;;;;;;9.25;65.42;101626.13;7393979;19;20023;-69
2022/05/01 06:04:24;;;;;;;9.27;5.43;;;;;;;9.33;65.01;101626.16;7395743;19;20019;-69
2022/05/01 06:06:52;;;;;;;9.75;4.95;;;;;;;9.37;64.58;101628.72;7395632;19;20014;-69
2022/05/01 06:09:21;;;;;;;7.78;4.45;;;;;;;9.42;64.35;101632.22;7394199;19;20023;-68
2022/05/01 06:11:49;;;;;;;7.32;5.03;;;;;;;9.48;64.12;101630.44;7393654;19;20035;-68
2022/05/01 06:14:17;;;;;;;8.27;4.97;;;;;;;9.53;64.01;101629.56;7395384;19;20022;-68
2022/05/01 06:16:45;;;;;;;6.97;5.13;;;;;;;9.58;63.66;101633.03;7394375;19;20036;-69
2022/05/01 06:19:16;;;;;;;6.75;4.88;;;;;;;9.65;63.40;101630.41;7395041;19;20022;-70
2022/05/01 06:21:44;;;;;;;8.50;5.15;;;;;;;9.71;63.35;101630.38;7392968;19;20481;-69
2022/05/01 06:24:12;;;;;;;8.52;4.90;;;;;;;9.76;63.22;101628.63;7394868;19;20022;-70
2022/05/01 06:26:40;;;;;;;7.07;4.50;;;;;;;9.83;63.00;101639.94;7394937;19;20022;-70
2022/05/01 06:29:08;;;;;;;8.60;5.10;;;;;;;9.89;62.68;101640.78;7394942;19;20035;-68
2022/05/01 06:31:37;;;;;;;8.10;4.93;;;;;;;9.98;62.52;101644.25;7393163;19;20138;-69
2022/05/01 06:34:06;;;;;;;8.27;4.50;;;;;;;10.06;62.29;101642.44;7394984;19;20036;-69
2022/05/01 06:36:37;;;;;;;6.63;4.55;;;;;;;10.16;62.00;101645.88;7393906;19;20007;-68
2022/05/01 06:39:06;;;;;;;6.50;4.90;;;;;;;10.24;61.73;101649.34;7394624;19;20019;-68
2022/05/01 06:41:35;;;;;;;9.75;4.75;;;;;;;10.35;61.46;101646.66;7392853;19;20021;-69
2022/05/01 06:44:03;;;;;;;4.75;4.22;;;;;;;10.45;61.17;101643.16;7394401;19;20040;-69
2022/05/01 06:46:31;;;;;;;6.00;4.38;;;;;;;10.57;60.83;101640.41;7394508;19;20031;-68
2022/05/01 06:48:59;;;;;;;8.40;5.00;;;;;;;10.68;60.68;101636.81;7394443;19;20024;-68
2022/05/01 06:51:27;;;;;;;7.68;4.65;;;;;;;10.80;60.52;101641.13;7392152;19;20537;-68
2022/05/01 06:53:58;;;;;;;7.25;4.63;;;;;;;10.92;60.12;101646.28;7400312;19;20347;-69
2022/05/01 06:56:26;;;;;;;8.88;4.50;;;;;;;11.04;59.93;101632.16;7400745;19;20033;-69
2022/05/01 06:58:54;;;;;;;7.43;3.88;;;;;;;11.17;59.50;101643.41;7398672;19;20058;-68
2022/05/01 07:01:22;;;;;;;9.23;4.63;;;;;;;11.30;58.88;101641.50;7399245;19;20023;-69
2022/05/01 07:03:51;;;;;;;8.65;4.22;;;;;;;11.43;58.26;101642.28;7398379;19;20379;-68
2022/05/01 07:06:19;;;;;;;10.05;4.43;;;;;;;11.54;57.99;101643.88;7398727;19;20039;-68
2022/05/01 07:08:47;;;;;;;7.35;3.72;;;;;;;11.64;57.36;101642.03;7401442;19;20015;-68
2022/05/01 07:11:18;;;;;;;8.18;4.07;;;;;;;11.74;56.60;101638.41;7399081;19;20026;-68
2022/05/01 07:13:46;;;;;;;8.40;4.15;;;;;;;11.85;56.30;101646.16;7398051;19;20482;-67
2022/05/01 07:16:14;;;;;;;10.38;5.07;;;;;;;11.96;55.90;101639.94;7400445;19;20038;-67
2022/05/01 07:18:42;;;;;;;9.80;4.35;;;;;;;12.05;55.63;101639.78;7400432;19;20039;-67
2022/05/01 07:21:11;;;;;;;6.55;4.68;;;;;;;12.15;55.28;101636.13;7398879;19;20022;-69
2022/05/01 07:23:40;;;;;;;8.10;4.30;;;;;;;12.26;54.78;101645.63;7398172;19;20019;-68
2022/05/01 07:26:08;;;;;;;7.03;4.63;;;;;;;12.34;53.83;101642.00;7400704;19;20014;-68
2022/05/01 07:28:39;;;;;;;6.22;3.92;;;;;;;12.45;53.85;101644.50;7400613;19;20023;-67
2022/05/01 07:31:07;;;;;;;10.07;4.30;;;;;;;12.56;53.81;101646.94;7398605;19;20038;-67
2022/05/01 07:33:35;;;;;;;7.55;3.92;;;;;;;12.65;52.49;101640.66;7400215;19;20018;-67
2022/05/01 07:36:04;;;;;;;5.85;3.97;;;;;;;12.73;52.91;101643.19;7399995;19;20035;-68
2022/05/01 07:38:32;;;;;;;6.57;3.95;;;;;;;12.79;52.35;101643.97;7400293;19;20021;-69
2022/05/01 07:41:00;;;;;;;7.50;3.97;;;;;;;12.84;52.05;101639.47;7398336;19;20023;-68
2022/05/01 07:43:29;;;;;;;8.02;4.20;;;;;;;12.90;52.13;101646.38;7397610;19;20035;-68
2022/05/01 07:46:00;;;;;;;9.30;4.35;;;;;;;12.95;52.18;101641.06;7400260;19;20023;-68
2022/05/01 07:48:28;;;;;;;7.57;3.50;;;;;;;13.00;50.82;101636.56;7399778;19;20489;-69
2022/05/01 07:50:56;;;;;;;5.32;3.88;;;;;;;13.04;51.03;101636.50;7398374;19;20019;-69
2022/05/01 07:53:24;;;;;;;9.90;4.07;;;;;;;13.08;51.13;101634.69;7399410;19;20502;-68
2022/05/01 07:55:52;;;;;;;7.28;3.90;;;;;;;13.11;50.81;101639.88;7397449;19;20006;-68
2022/05/01 07:58:21;;;;;;;5.15;3.85;;;;;;;13.18;50.93;101640.63;7397137;19;20011;-69
2022/05/01 08:00:50;;;;;;;6.82;4.07;;;;;;;13.28;50.57;101638.72;7398229;19;20014;-67
2022/05/01 08:06:01;;;;;;;8.65;4.10;;;;;;;13.51;50.24;101647.06;7399949;19;20019;-68
2022/05/01 08:08:33;;;;;;;8.10;4.80;;;;;;;13.65;50.05;101638.91;7399460;19;20019;-69
2022/05/01 08:11:01;;;;;;;6.05;3.67;;;;;;;13.80;49.76;101637.72;7397485;19;20018;-69
2022/05/01 08:13:29;;;;;;;6.40;3.75;;;;;;;13.94;49.39;101637.41;7396227;19;20596;-68
2022/05/01 08:15:57;;;;;;;6.38;4.13;;;;;;;14.08;48.98;101637.13;7398867;19;20038;-68
2022/05/01 08:21:10;;;;;;;4.93;3.83;;;;;;;14.38;48.21;101637.34;7397151;19;20074;-69
2022/05/01 08:23:41;;;;;;;9.38;3.65;;;;;;;14.49;47.55;101623.88;7395390;19;20443;-69
2022/05/01 08:26:11;;;;;;;6.05;4.07;;;;;;;14.65;47.30;101630.53;7395897;19;20023;-69
2022/05/01 08:28:40;;;;;;;4.65;3.28;;;;;;;14.77;46.93;101629.38;7398664;19;20015;-69
2022/05/01 08:31:10;;;;;;;6.57;4.60;;;;;;;14.91;46.17;101639.59;7397090;19;20022;-68
2022/05/01 08:33:41;;;;;;;9.27;4.93;;;;;;;15.02;45.92;101630.53;7398391;19;20092;-68
2022/05/01 08:36:09;;;;;;;8.95;5.68;;;;;;;15.14;45.61;101631.06;7398395;19;20014;-68
2022/05/01 08:38:38;;;;;;;11.98;6.63;;;;;;;15.25;45.40;101632.53;7395836;19;20032;-70
2022/05/01 08:41:07;;;;;;;11.32;5.68;;;;;;;15.38;45.28;101630.41;7395831;19;20022;-67
2022/05/01 08:43:36;;;;;;;12.48;7.38;;;;;;;15.50;44.53;101637.16;7395918;19;20018;-70
2022/05/01 08:46:41;;;;;;;6.10;4.65;;;;;;;15.62;42.79;101634.19;7395484;19;20014;-68
2022/05/01 08:49:12;;;;;;;8.75;3.65;;;;;;;15.74;43.48;101628.50;7393718;19;20014;-68
2022/05/01 08:51:42;;;;;;;13.73;6.93;;;;;;;15.78;43.36;101624.88;7395363;19;20389;-69
2022/05/01 08:54:11;;;;;;;5.63;4.25;;;;;;;15.84;43.25;101629.13;7396955;19;20010;-69
2022/05/01 08:56:41;;;;;;;7.63;4.00;;;;;;;15.90;42.86;101628.09;7395908;19;20030;-70
2022/05/01 08:59:11;;;;;;;7.43;3.92;;;;;;;15.96;42.70;101631.44;7397044;19;20022;-69
2022/05/01 09:01:41;;;;;;;7.88;3.90;;;;;;;16.05;42.36;101639.97;7395277;19;20113;-68
2022/05/01 09:04:14;;;;;;;6.72;4.15;;;;;;;16.11;41.43;101635.38;7395078;19;20019;-67
2022/05/01 09:06:45;;;;;;;5.53;4.47;;;;;;;16.19;41.99;101629.84;7397422;19;20110;-69
2022/05/01 09:09:17;;;;;;;7.53;3.80;;;;;;;16.28;41.98;101628.69;7395427;19;20022;-69
2022/05/01 09:14:29;;;;;;;7.88;3.30;;;;;;;16.47;41.35;101626.31;7395621;19;20518;-69
2022/05/01 09:17:19;;;;;;;5.97;4.13;;;;;;;16.58;40.52;101623.31;7395053;19;20018;-68
2022/05/01 09:19:51;;;;;;;4.72;3.40;;;;;;;16.65;40.41;101629.28;7396314;19;20081;-67
2022/05/01 09:22:20;;;;;;;7.60;4.20;;;;;;;16.65;40.48;101630.16;7395769;19;20014;-67
2022/05/01 09:24:53;;;;;;;10.15;4.38;;;;;;;16.68;40.67;101618.59;7396408;19;20035;-69
2022/05/01 09:27:29;;;;;;;6.07;3.80;;;;;;;16.69;39.01;101629.13;7396895;19;20021;-68
2022/05/01 09:30:15;;;;;;;8.90;3.85;;;;;;;16.65;39.28;101616.91;7396311;19;20022;-69
2022/05/01 09:32:45;;;;;;;7.00;4.30;;;;;;;16.60;40.03;101617.06;7395084;19;20018;-69
2022/05/01 09:35:31;;;;;;;6.80;3.67;;;;;;;16.61;38.94;101618.78;7394400;19;20018;-67
2022/05/01 09:38:12;;;;;;;6.72;4.30;;;;;;;16.67;39.38;101607.13;7395032;19;20010;-69
2022/05/01 09:40:40;;;;;;;6.20;3.80;;;;;;;16.78;39.75;101612.94;7394897;19;20023;-67
2022/05/01 09:43:08;;;;;;;7.15;3.58;;;;;;;16.88;39.47;101612.59;7395528;19;20022;-68
2022/05/01 09:45:36;;;;;;;5.40;3.80;;;;;;;16.96;39.51;101612.38;7395434;19;20486;-68
2022/05/01 09:48:21;;;;;;;7.75;4.10;;;;;;;16.97;37.86;101604.34;7394531;19;20026;-68
2022/05/01 09:50:51;;;;;;;5.85;3.67;;;;;;;17.02;39.15;101605.09;7395403;19;20086;-68
2022/05/01 09:53:20;;;;;;;6.32;4.18;;;;;;;17.06;38.96;101601.41;7395385;19;20424;-67
2022/05/01 09:56:01;;;;;;;6.22;3.92;;;;;;;17.14;38.13;101601.13;7393443;19;20038;-66
2022/05/01 09:58:33;;;;;;;6.00;3.65;;;;;;;17.20;38.51;101595.59;7394885;19;20014;-68
2022/05/01 10:01:11;;;;;;;5.75;3.55;;;;;;;17.22;37.97;101593.75;7394540;19;20022;-66
2022/05/01 10:03:42;;;;;;;10.43;3.85;;;;;;;17.22;38.27;101592.91;7394329;19;20382;-68
2022/05/01 10:06:15;;;;;;;11.48;4.07;;;;;;;17.22;38.08;101592.91;7394331;19;20018;-68
2022/05/01 10:08:44;;;;;;;;;;;;;;;17.24;38.72;101586.63;7396767;19;20027;-68
2022/05/01 10:11:14;;;;;;;8.38;3.67;;;;;;;17.27;38.66;101593.59;7394082;19;19927;-68
2022/05/01 10:13:43;;;;;;;7.53;3.75;;;;;;;17.25;38.56;101588.34;7393464;19;20509;-67
2022/05/01 10:16:15;;;;;;;5.75;3.70;;;;;;;17.17;37.97;101585.09;7395262;19;20017;-67
2022/05/01 10:18:44;;;;;;;6.88;3.58;;;;;;;17.04;38.58;101584.69;7394304;19;20025;-67
2022/05/01 10:21:15;;;;;;;5.88;3.00;;;;;;;16.92;39.08;101586.00;7393176;19;20035;-67
2022/05/01 10:23:44;;;;;;;5.00;3.03;;;;;;;16.89;39.86;101586.03;7394661;19;20481;-67
2022/05/01 10:26:18;;;;;;;4.88;3.28;;;;;;;16.73;40.63;101585.72;7390767;19;20014;-67
2022/05/01 10:29:07;;;;;;;6.65;3.15;;;;;;;16.60;41.22;101589.69;7395193;19;20023;-68
2022/05/01 10:34:57;;;;;;;6.00;3.15;;;;;;;16.31;42.05;101586.22;7394802;19;20455;-68
2022/05/01 10:37:57;;;;;;;4.55;2.65;;;;;;;16.10;43.18;101593.94;7393419;19;20022;-67
2022/05/01 10:40:26;;;;;;;4.57;2.58;;;;;;;15.97;43.61;101592.59;7392250;19;20038;-67
2022/05/01 10:42:55;;;;;;;3.28;2.50;;;;;;;15.66;44.19;101600.53;7392997;19;20018;-68
2022/05/01 10:45:45;;;;;;;5.47;2.88;;;;;;;15.37;45.14;101594.34;7392635;19;20015;-67
2022/05/01 10:48:17;;;;;;;6.15;2.55;;;;;;;15.26;45.15;101598.13;7394573;19;20017;-68
2022/05/01 10:50:46;;;;;;;7.05;2.47;;;;;;;15.15;45.47;101601.09;7393873;19;20027;-67
2022/05/01 10:53:16;;;;;;;5.30;2.20;;;;;;;14.95;45.69;101595.44;7392888;19;20035;-69
2022/05/01 10:55:55;;;;;;;5.07;1.80;;;;;;;14.76;46.09;101593.31;7392882;19;20015;-68
2022/05/01 10:58:26;;;;;;;4.63;1.80;;;;;;;14.58;46.97;101593.72;7392650;19;20018;-69
2022/05/01 11:00:56;;;;;;;4.45;2.15;;;;;;;14.48;46.70;101601.88;7392163;19;20019;-68
2022/05/01 11:03:26;;;;;;;3.88;1.85;;;;;;;14.37;46.95;101590.72;7393632;19;20513;-67
2022/05/01 11:05:55;;;;;;;5.13;2.25;;;;;;;14.27;46.96;101589.22;7392069;19;20377;-69
2022/05/01 11:08:28;;;;;;;5.60;2.20;;;;;;;14.21;46.84;101587.56;7392139;19;20022;-69
2022/05/01 11:10:59;;;;;;;5.40;2.30;;;;;;;14.10;46.75;101592.22;7392889;19;20025;-70
2022/05/01 11:13:31;;;;;;;3.97;2.28;;;;;;;14.02;46.65;101600.31;7392326;19;20504;-69
2022/05/01 11:15:59;;;;;;;5.30;2.72;;;;;;;13.96;46.96;101601.34;7391288;19;20508;-68
2022/05/01 11:18:31;;;;;;;5.15;2.53;;;;;;;13.91;47.02;101587.34;7390250;19;20018;-68
2022/05/01 11:21:30;;;;;;;3.58;2.13;;;;;;;13.91;47.11;101589.13;7391104;19;20419;-68
2022/05/01 11:24:03;;;;;;;7.82;2.58;;;;;;;13.93;46.87;101584.69;7393272;19;20035;-69
2022/05/01 11:26:32;;;;;;;5.40;2.17;;;;;;;13.94;46.86;101589.06;7393823;19;20023;-67
2022/05/01 11:29:13;;;;;;;4.53;2.35;;;;;;;13.91;46.76;101586.50;7391185;19;20026;-67
2022/05/01 11:31:52;;;;;;;4.28;2.00;;;;;;;13.91;47.06;101586.50;7390856;19;20369;-68
2022/05/01 11:34:54;;;;;;;5.10;2.38;;;;;;;13.91;47.26;101600.53;7392615;19;20392;-68
2022/05/01 11:37:24;;;;;;;4.38;2.40;;;;;;;13.85;47.22;101588.38;7391288;19;20011;-67
2022/05/01 11:40:24;;;;;;;5.63;2.25;;;;;;;13.92;47.32;101601.44;7397365;19;20351;-67
2022/05/01 11:42:53;;;;;;;2.85;1.83;;;;;;;13.96;46.85;101600.44;7400857;19;20034;-67
2022/05/01 11:45:23;;;;;;;6.05;2.70;;;;;;;13.98;46.91;101585.47;7397292;19;20026;-67
2022/05/01 11:47:53;;;;;;;2.63;2.10;;;;;;;13.99;46.80;101581.94;7400103;19;20095;-68
2022/05/01 11:50:23;;;;;;;6.20;2.63;;;;;;;14.00;46.92;101586.28;7399319;19;20024;-67
2022/05/01 11:52:56;;;;;;;3.58;2.05;;;;;;;14.05;47.01;101586.19;7399112;19;20346;-68
2022/05/01 12:03:30;;;;;;;3.55;2.08;;;;;;;14.50;46.34;101564.88;7400041;19;20023;-68
2022/05/01 12:05:58;;;;;;;3.63;2.35;;;;;;;14.64;45.92;101568.06;7399105;19;20474;-68
2022/05/01 12:08:27;;;;;;;12.75;7.30;;;;;;;14.75;45.71;101565.16;7399260;19;20019;-69
2022/05/01 12:10:58;;;;;;;6.47;3.80;;;;;;;14.80;45.45;101571.19;7396844;19;20028;-68
2022/05/01 12:13:27;;;;;;;6.57;2.55;;;;;;;14.90;45.17;101563.88;7399483;19;20037;-68
2022/05/01 12:15:56;;;;;;;4.53;2.75;;;;;;;15.02;45.20;101560.03;7399258;19;20018;-68
2022/05/01 12:18:25;;;;;;;4.07;2.28;;;;;;;15.19;44.93;101574.56;7397846;19;20018;-67
2022/05/01 12:20:53;;;;;;;4.28;2.88;;;;;;;15.29;44.71;101565.44;7397176;19;20014;-68